createdAt,value
2019-02-25T00:00:19.910Z,1.50
2019-02-25T00:02:48.760Z,1.37
2019-02-25T00:05:18.100Z,1.37
2019-02-25T00:07:46.961Z,1.17
2019-02-25T00:10:15.800Z,2.47
2019-02-25T00:12:44.703Z,2.27
2019-02-25T00:15:13.630Z,2.43
2019-02-25T00:17:42.456Z,3.37
2019-02-25T00:20:13.227Z,2.37
2019-02-25T00:22:42.155Z,1.30
2019-02-25T00:25:12.306Z,1.43
2019-02-25T00:27:41.216Z,1.47
2019-02-25T00:30:12.198Z,1.57
2019-02-25T00:32:41.014Z,1.30
2019-02-25T00:35:09.870Z,2.13
2019-02-25T00:37:38.722Z,2.47
2019-02-25T00:40:09.870Z,2.47
2019-02-25T00:42:38.673Z,1.80
2019-02-25T00:45:16.180Z,2.30
2019-02-25T00:47:45.017Z,1.53
2019-02-25T00:50:19.042Z,2.23
2019-02-25T00:52:47.845Z,2.60
2019-02-25T00:55:17.051Z,3.80
2019-02-25T00:57:45.897Z,2.33
2019-02-25T01:00:17.641Z,1.30
2019-02-25T01:02:46.534Z,2.53
2019-02-25T01:05:16.304Z,2.63
2019-02-25T01:07:45.477Z,1.10
2019-02-25T01:10:15.542Z,1.83
2019-02-25T01:12:45.958Z,2.97
2019-02-25T01:15:15.781Z,1.43
2019-02-25T01:17:44.729Z,1.33
2019-02-25T01:20:15.789Z,2.67
2019-02-25T01:22:44.782Z,1.83
2019-02-25T01:25:15.374Z,2.50
2019-02-25T01:27:44.280Z,2.27
2019-02-25T01:30:14.949Z,1.90
2019-02-25T01:32:43.760Z,2.50
2019-02-25T01:35:14.094Z,2.10
2019-02-25T01:37:42.963Z,1.60
2019-02-25T01:40:13.209Z,2.40
2019-02-25T01:42:42.153Z,2.03
2019-02-25T01:45:19.001Z,3.13
2019-02-25T01:47:47.902Z,3.13
2019-02-25T01:50:16.753Z,1.87
2019-02-25T01:52:45.614Z,2.20
2019-02-25T01:55:14.611Z,4.67
2019-02-25T01:57:43.997Z,1.97
2019-02-25T02:00:17.938Z,2.50
2019-02-25T02:02:46.782Z,2.30
2019-02-25T02:05:15.617Z,1.50
2019-02-25T02:07:44.463Z,1.97
2019-02-25T02:10:14.976Z,1.60
2019-02-25T02:12:43.783Z,2.27
2019-02-25T02:15:15.610Z,2.73
2019-02-25T02:17:44.520Z,2.13
2019-02-25T02:20:15.823Z,1.67
2019-02-25T02:22:44.607Z,1.33
2019-02-25T02:25:21.429Z,1.57
2019-02-25T02:27:50.220Z,2.53
2019-02-25T02:30:22.840Z,3.60
2019-02-25T02:32:51.685Z,3.00
2019-02-25T02:35:20.516Z,1.93
2019-02-25T02:37:49.398Z,1.80
2019-02-25T02:40:18.255Z,1.77
2019-02-25T02:42:58.435Z,2.53
2019-02-25T02:45:42.273Z,2.60
2019-02-25T02:48:14.103Z,2.63
2019-02-25T02:50:42.969Z,1.07
2019-02-25T02:53:11.823Z,2.17
2019-02-25T02:55:40.654Z,1.00
2019-02-25T02:58:09.515Z,1.70
2019-02-25T03:00:38.386Z,1.33
2019-02-25T03:03:07.266Z,1.97
2019-02-25T03:05:36.104Z,1.37
2019-02-25T03:08:05.340Z,3.47
2019-02-25T03:10:34.212Z,2.07
2019-02-25T03:13:03.086Z,2.80
2019-02-25T03:15:32.015Z,3.27
2019-02-25T03:18:00.886Z,2.00
2019-02-25T03:20:29.721Z,1.90
2019-02-25T03:22:58.600Z,3.63
2019-02-25T03:25:27.484Z,2.50
2019-02-25T03:27:56.356Z,1.93
2019-02-25T03:30:25.218Z,2.00
2019-02-25T03:32:54.015Z,1.93
2019-02-25T03:35:22.884Z,2.73
2019-02-25T03:37:51.775Z,1.07
2019-02-25T03:40:22.571Z,1.83
2019-02-25T03:42:51.379Z,4.90
2019-02-25T03:45:21.315Z,1.07
2019-02-25T03:47:50.160Z,1.00
2019-02-25T03:50:19.046Z,2.40
2019-02-25T03:52:47.860Z,1.80
2019-02-25T03:55:19.504Z,2.10
2019-02-25T03:57:48.329Z,1.77
2019-02-25T04:00:22.477Z,1.37
2019-02-25T04:02:51.323Z,2.00
2019-02-25T04:05:20.434Z,2.67
2019-02-25T04:07:49.317Z,3.47
2019-02-25T04:10:18.113Z,3.90
2019-02-25T04:12:46.966Z,1.20
2019-02-25T04:15:19.184Z,2.37
2019-02-25T04:17:48.044Z,3.00
2019-02-25T04:20:17.733Z,1.03
2019-02-25T04:22:46.608Z,2.60
2019-02-25T04:25:15.414Z,6.67
2019-02-25T04:27:44.312Z,3.90
2019-02-25T04:30:16.755Z,1.87
2019-02-25T04:32:45.613Z,1.97
2019-02-25T04:35:14.673Z,3.33
2019-02-25T04:37:43.537Z,1.93
2019-02-25T04:40:15.565Z,2.37
2019-02-25T04:42:44.434Z,2.23
2019-02-25T04:45:23.200Z,3.83
2019-02-25T04:47:52.043Z,2.70
2019-02-25T04:50:20.844Z,3.00
2019-02-25T04:52:49.698Z,1.37
2019-02-25T04:55:18.560Z,1.53
2019-02-25T04:57:47.414Z,2.40
2019-02-25T05:00:22.478Z,1.33
2019-02-25T05:02:51.280Z,2.73
2019-02-25T05:05:20.140Z,1.27
2019-02-25T05:07:48.974Z,3.60
2019-02-25T05:10:17.896Z,1.80
2019-02-25T05:12:49.001Z,3.27
2019-02-25T05:15:19.381Z,2.43
2019-02-25T05:17:48.336Z,1.53
2019-02-25T05:20:17.211Z,1.73
2019-02-25T05:22:46.155Z,2.17
2019-02-25T05:25:15.079Z,3.10
2019-02-25T05:27:43.897Z,3.13
2019-02-25T05:30:14.793Z,1.67
2019-02-25T05:32:43.647Z,3.50
2019-02-25T05:35:13.754Z,1.97
2019-02-25T05:37:42.729Z,1.50
2019-02-25T05:40:14.498Z,1.60
2019-02-25T05:42:43.810Z,2.03
2019-02-25T05:45:13.853Z,1.90
2019-02-25T05:47:42.674Z,2.53
2019-02-25T05:50:16.711Z,2.23
2019-02-25T05:52:45.688Z,1.70
2019-02-25T05:55:15.772Z,1.50
2019-02-25T05:57:44.725Z,2.10
2019-02-25T06:00:22.695Z,1.60
2019-02-25T06:02:51.603Z,2.57
2019-02-25T06:05:20.462Z,1.87
2019-02-25T06:07:49.344Z,1.40
2019-02-25T06:10:18.144Z,1.43
2019-02-25T06:12:47.091Z,2.17
2019-02-25T06:15:20.848Z,1.80
2019-02-25T06:17:50.242Z,1.73
2019-02-25T06:20:19.256Z,3.37
2019-02-25T06:22:48.202Z,3.23
2019-02-25T06:25:17.525Z,1.60
2019-02-25T06:27:46.468Z,2.70
2019-02-25T06:30:23.487Z,2.73
2019-02-25T06:32:52.412Z,2.60
2019-02-25T06:35:21.229Z,3.60
2019-02-25T06:37:50.128Z,3.67
2019-02-25T06:40:21.037Z,2.23
2019-02-25T06:42:50.002Z,3.57
2019-02-25T06:45:31.210Z,2.17
2019-02-25T06:48:00.416Z,2.27
2019-02-25T06:50:29.186Z,4.40
2019-02-25T06:52:58.102Z,2.93
2019-02-25T06:55:27.127Z,3.10
2019-02-25T06:57:55.912Z,3.47
2019-02-25T07:00:25.193Z,2.57
2019-02-25T07:02:53.991Z,4.30
2019-02-25T07:05:33.261Z,2.47
2019-02-25T07:08:12.667Z,2.20
2019-02-25T07:10:52.144Z,2.20
2019-02-25T07:13:22.551Z,2.30
2019-02-25T07:15:52.984Z,3.40
2019-02-25T07:18:41.605Z,2.73
2019-02-25T07:21:12.042Z,2.60
2019-02-25T07:23:54.776Z,2.87
2019-02-25T07:26:31.048Z,2.93
2019-02-25T07:29:03.394Z,3.73
2019-02-25T07:31:36.596Z,4.33
2019-02-25T07:34:07.073Z,3.17
2019-02-25T07:36:49.579Z,3.73
2019-02-25T07:39:23.035Z,3.63
2019-02-25T07:41:56.438Z,3.40
2019-02-25T07:44:29.832Z,3.20
2019-02-25T07:47:14.766Z,2.43
2019-02-25T07:49:51.536Z,2.60
2019-02-25T07:52:24.657Z,4.83
2019-02-25T07:55:00.618Z,5.27
2019-02-25T07:57:36.516Z,2.43
2019-02-25T08:00:14.700Z,3.00
2019-02-25T08:02:47.802Z,3.03
2019-02-25T08:05:23.763Z,2.80
2019-02-25T08:08:03.168Z,6.07
2019-02-25T08:10:36.412Z,4.57
2019-02-25T08:13:19.108Z,2.73
2019-02-25T08:15:52.397Z,2.83
2019-02-25T08:18:35.072Z,3.17
2019-02-25T08:21:11.110Z,3.50
2019-02-25T08:23:41.469Z,3.37
2019-02-25T08:26:21.153Z,3.23
2019-02-25T08:28:57.670Z,2.80
2019-02-25T08:31:37.069Z,2.57
2019-02-25T08:34:23.695Z,5.37
2019-02-25T08:37:02.334Z,3.40
2019-02-25T08:39:41.155Z,2.20
2019-02-25T08:42:20.398Z,3.40
2019-02-25T08:44:56.782Z,2.43
2019-02-25T08:47:27.228Z,3.57
2019-02-25T08:49:56.653Z,3.00
2019-02-25T08:52:25.502Z,2.90
2019-02-25T08:54:54.361Z,3.83
2019-02-25T08:57:23.176Z,3.07
2019-02-25T08:59:52.043Z,2.83
2019-02-25T09:02:20.942Z,2.93
2019-02-25T09:04:49.788Z,3.43
2019-02-25T09:07:18.648Z,3.67
2019-02-25T09:09:47.439Z,2.53
2019-02-25T09:12:16.355Z,1.97
2019-02-25T09:14:45.188Z,2.80
2019-02-25T09:17:15.974Z,4.73
2019-02-25T09:19:44.595Z,2.43
2019-02-25T09:22:13.405Z,2.27
2019-02-25T09:24:42.248Z,1.83
2019-02-25T09:27:11.122Z,4.00
2019-02-25T09:29:39.982Z,3.47
2019-02-25T09:32:08.765Z,3.00
2019-02-25T09:34:37.656Z,2.27
2019-02-25T09:37:06.510Z,2.53
2019-02-25T09:39:35.355Z,1.97
2019-02-25T09:42:04.247Z,3.60
2019-02-25T09:44:33.115Z,1.80
2019-02-25T09:47:01.996Z,3.40
2019-02-25T09:49:30.819Z,2.77
2019-02-25T09:51:59.715Z,2.67
2019-02-25T09:54:28.519Z,1.93
2019-02-25T09:56:57.414Z,3.37
2019-02-25T09:59:26.272Z,3.17
2019-02-25T10:01:55.103Z,2.77
2019-02-25T10:04:23.955Z,1.57
2019-02-25T10:07:01.960Z,1.73
2019-02-25T10:09:29.783Z,2.07
2019-02-25T10:11:57.754Z,2.17
2019-02-25T10:14:26.643Z,2.77
2019-02-25T10:16:55.536Z,2.53
2019-02-25T10:19:24.332Z,3.80
2019-02-25T10:21:53.159Z,4.27
2019-02-25T10:24:22.017Z,3.33
2019-02-25T10:26:50.870Z,1.77
2019-02-25T10:29:19.781Z,1.63
2019-02-25T10:31:48.748Z,1.97
2019-02-25T10:34:18.047Z,1.97
2019-02-25T10:36:48.214Z,3.10
2019-02-25T10:39:18.278Z,3.63
2019-02-25T10:41:48.170Z,1.43
2019-02-25T10:44:17.068Z,2.50
2019-02-25T10:46:47.010Z,2.03
2019-02-25T10:49:16.453Z,1.93
2019-02-25T10:51:45.640Z,3.00
2019-02-25T10:54:15.313Z,2.90
2019-02-25T10:56:49.381Z,1.90
2019-02-25T10:59:18.197Z,2.73
2019-02-25T11:01:47.508Z,2.40
2019-02-25T11:04:17.446Z,3.40
2019-02-25T11:06:47.134Z,1.90
2019-02-25T11:09:23.456Z,1.93
2019-02-25T11:11:52.716Z,1.93
2019-02-25T11:14:22.757Z,3.47
2019-02-25T11:16:52.229Z,3.70
2019-02-25T11:19:22.370Z,2.20
2019-02-25T11:21:51.690Z,1.77
2019-02-25T11:24:22.713Z,1.77
2019-02-25T11:26:51.062Z,2.70
2019-02-25T11:29:19.854Z,3.07
2019-02-25T11:31:49.514Z,1.33
2019-02-25T11:34:19.271Z,2.83
2019-02-25T11:36:48.707Z,4.37
2019-02-25T11:39:18.862Z,4.30
2019-02-25T11:41:50.805Z,2.07
2019-02-25T11:44:21.241Z,3.57
2019-02-25T11:46:50.190Z,2.17
2019-02-25T11:49:19.080Z,2.53
2019-02-25T11:51:47.977Z,1.87
2019-02-25T11:54:16.808Z,4.10
2019-02-25T11:56:45.660Z,1.60
2019-02-25T11:59:14.500Z,3.50
2019-02-25T12:01:43.442Z,2.23
2019-02-25T12:04:12.232Z,1.97
2019-02-25T12:06:41.089Z,2.27
2019-02-25T12:09:09.979Z,2.13
2019-02-25T12:11:38.796Z,2.90
2019-02-25T12:14:07.610Z,2.03
2019-02-25T12:16:36.448Z,1.53
2019-02-25T12:19:05.344Z,1.67
2019-02-25T12:21:34.282Z,2.00
2019-02-25T12:24:03.087Z,1.97
2019-02-25T12:26:31.944Z,2.20
2019-02-25T12:29:08.490Z,4.30
2019-02-25T12:31:31.317Z,2.60
2019-02-25T12:34:00.229Z,1.63
2019-02-25T12:36:29.236Z,2.07
2019-02-25T12:38:58.031Z,2.47
2019-02-25T12:41:27.391Z,2.07
2019-02-25T12:43:56.379Z,3.50
2019-02-25T12:46:25.288Z,2.53
2019-02-25T12:48:54.155Z,2.07
2019-02-25T12:51:23.064Z,2.17
2019-02-25T12:53:51.921Z,3.03
2019-02-25T12:56:20.848Z,2.40
2019-02-25T12:58:49.704Z,2.33
2019-02-25T13:01:18.568Z,4.50
2019-02-25T13:03:47.444Z,3.37
2019-02-25T13:06:16.228Z,1.70
2019-02-25T13:08:45.144Z,2.13
2019-02-25T13:11:14.066Z,2.53
2019-02-25T13:13:44.543Z,2.20
2019-02-25T13:16:13.603Z,2.47
2019-02-25T13:18:42.391Z,2.20
2019-02-25T13:21:11.304Z,2.57
2019-02-25T13:23:40.183Z,3.30
2019-02-25T13:26:09.052Z,2.03
2019-02-25T13:28:37.896Z,5.13
2019-02-25T13:31:07.699Z,4.23
2019-02-25T13:33:37.447Z,2.17
2019-02-25T13:36:09.272Z,4.60
2019-02-25T13:38:38.158Z,1.90
2019-02-25T13:41:07.104Z,2.90
2019-02-25T13:43:36.062Z,2.03
2019-02-25T13:46:05.328Z,2.00
2019-02-25T13:48:34.136Z,2.30
2019-02-25T13:51:03.237Z,1.97
2019-02-25T13:53:32.148Z,3.20
2019-02-25T13:56:01.346Z,3.27
2019-02-25T13:58:33.189Z,2.07
2019-02-25T14:01:05.058Z,2.53
2019-02-25T14:03:33.995Z,2.87
2019-02-25T14:06:02.857Z,1.90
2019-02-25T14:08:31.699Z,3.47
2019-02-25T14:11:00.544Z,4.83
2019-02-25T14:13:29.383Z,3.23
2019-02-25T14:15:58.327Z,2.73
2019-02-25T14:18:27.188Z,3.43
2019-02-25T14:20:56.097Z,4.17
2019-02-25T14:23:25.183Z,2.70
2019-02-25T14:25:54.141Z,1.80
2019-02-25T14:28:22.949Z,2.20
2019-02-25T14:30:51.885Z,2.17
2019-02-25T14:33:23.478Z,4.47
2019-02-25T14:35:53.159Z,2.50
2019-02-25T14:38:23.213Z,3.47
2019-02-25T14:40:54.018Z,5.60
2019-02-25T14:43:25.451Z,5.87
2019-02-25T14:45:56.278Z,4.40
2019-02-25T14:48:25.337Z,2.43
2019-02-25T14:50:54.749Z,1.97
2019-02-25T14:53:23.616Z,2.00
2019-02-25T14:55:55.267Z,3.80
2019-02-25T14:58:23.120Z,3.17
2019-02-25T15:00:52.082Z,4.93
2019-02-25T15:03:22.675Z,2.90
2019-02-25T15:05:53.241Z,2.40
2019-02-25T15:08:23.955Z,3.07
2019-02-25T15:10:52.897Z,3.43
2019-02-25T15:13:23.961Z,4.63
2019-02-25T15:15:52.288Z,5.20
2019-02-25T15:18:22.185Z,2.87
2019-02-25T15:20:51.689Z,3.70
2019-02-25T15:23:23.635Z,2.83
2019-02-25T15:25:51.093Z,2.77
2019-02-25T15:28:20.388Z,3.13
2019-02-25T15:30:50.438Z,2.40
2019-02-25T15:33:22.779Z,3.67
2019-02-25T15:35:51.643Z,2.13
2019-02-25T15:38:20.448Z,4.20
2019-02-25T15:40:49.332Z,2.30
2019-02-25T15:43:20.798Z,4.93
2019-02-25T15:45:48.969Z,4.70
2019-02-25T15:48:22.562Z,1.77
2019-02-25T15:50:55.610Z,1.67
2019-02-25T15:53:24.363Z,4.67
2019-02-25T15:55:55.206Z,2.80
2019-02-25T15:58:23.768Z,1.73
2019-02-25T16:00:52.686Z,2.00
2019-02-25T16:03:21.702Z,2.67
2019-02-25T16:05:52.337Z,1.87
2019-02-25T16:08:21.268Z,3.30
2019-02-25T16:10:53.395Z,3.20
2019-02-25T16:13:22.512Z,5.57
2019-02-25T16:15:51.443Z,2.53
2019-02-25T16:18:20.369Z,2.97
2019-02-25T16:20:49.338Z,3.10
2019-02-25T16:23:20.097Z,2.23
2019-02-25T16:25:50.404Z,1.77
2019-02-25T16:28:19.416Z,2.60
2019-02-25T16:30:49.145Z,5.50
2019-02-25T16:33:18.815Z,2.27
2019-02-25T16:35:47.648Z,2.90
2019-02-25T16:38:16.560Z,2.13
2019-02-25T16:40:45.404Z,2.47
2019-02-25T16:43:14.327Z,2.17
2019-02-25T16:45:46.466Z,3.13
2019-02-25T16:48:13.871Z,1.67
2019-02-25T16:50:45.806Z,5.10
2019-02-25T16:53:15.541Z,2.30
2019-02-25T16:55:45.057Z,2.70
2019-02-25T16:58:14.258Z,1.67
2019-02-25T17:00:43.868Z,3.20
2019-02-25T17:03:13.768Z,2.07
2019-02-25T17:05:45.636Z,2.17
2019-02-25T17:08:15.274Z,4.30
2019-02-25T17:10:44.189Z,3.93
2019-02-25T17:13:14.896Z,3.83
2019-02-25T17:15:45.934Z,2.23
2019-02-25T17:18:15.805Z,4.63
2019-02-25T17:20:45.136Z,1.83
2019-02-25T17:23:14.505Z,2.73
2019-02-25T17:25:43.719Z,4.07
2019-02-25T17:28:15.324Z,1.73
2019-02-25T17:30:45.072Z,2.33
2019-02-25T17:33:14.824Z,2.43
2019-02-25T17:35:45.347Z,4.90
2019-02-25T17:38:14.619Z,2.73
2019-02-25T17:40:43.657Z,5.37
2019-02-25T17:43:13.937Z,2.90
2019-02-25T17:45:43.033Z,4.50
2019-02-25T17:48:14.150Z,2.67
2019-02-25T17:50:44.066Z,3.03
2019-02-25T17:53:13.008Z,2.63
2019-02-25T17:55:42.372Z,3.00
2019-02-25T17:58:12.888Z,3.17
2019-02-25T18:00:43.582Z,4.07
2019-02-25T18:03:12.656Z,3.13
2019-02-25T18:05:43.233Z,4.13
2019-02-25T18:08:14.580Z,4.67
2019-02-25T18:10:44.970Z,5.43
2019-02-25T18:13:13.518Z,4.43
2019-02-25T18:15:42.785Z,4.83
2019-02-25T18:18:12.473Z,4.10
2019-02-25T18:20:42.247Z,3.07
2019-02-25T18:23:11.536Z,3.13
2019-02-25T18:25:40.627Z,3.03
2019-02-25T18:28:10.797Z,3.83
2019-02-25T18:30:40.548Z,5.67
2019-02-25T18:33:10.252Z,6.20
2019-02-25T18:35:41.610Z,3.40
2019-02-25T18:38:10.170Z,3.07
2019-02-25T18:40:41.362Z,5.97
2019-02-25T18:43:10.044Z,7.47
2019-02-25T18:45:41.062Z,4.03
2019-02-25T18:48:09.794Z,3.67
2019-02-25T18:50:39.692Z,6.10
2019-02-25T18:53:08.835Z,3.00
2019-02-25T18:55:37.747Z,3.20
2019-02-25T18:58:09.633Z,6.30
2019-02-25T19:00:42.593Z,6.07
2019-02-25T19:03:11.542Z,5.10
2019-02-25T19:05:40.633Z,6.60
2019-02-25T19:08:14.964Z,2.87
2019-02-25T19:10:46.145Z,5.13
2019-02-25T19:13:16.034Z,7.27
2019-02-25T19:15:46.313Z,3.57
2019-02-25T19:18:17.570Z,4.30
2019-02-25T19:20:48.054Z,5.83
2019-02-25T19:23:16.895Z,8.97
2019-02-25T19:25:45.968Z,7.53
2019-02-25T19:28:18.704Z,5.77
2019-02-25T19:30:45.557Z,5.93
2019-02-25T19:33:19.268Z,5.03
2019-02-25T19:35:45.686Z,7.67
2019-02-25T19:38:15.338Z,7.57
2019-02-25T19:40:46.601Z,5.53
2019-02-25T19:43:15.933Z,7.33
2019-02-25T19:45:45.468Z,7.30
2019-02-25T19:48:14.675Z,5.27
2019-02-25T19:50:51.113Z,5.53
2019-02-25T19:53:15.332Z,7.33
2019-02-25T19:55:46.275Z,5.43
2019-02-25T19:58:15.242Z,5.80
2019-02-25T20:00:44.524Z,9.13
2019-02-25T20:03:13.629Z,8.57
2019-02-25T20:05:44.257Z,6.40
2019-02-25T20:08:14.240Z,5.83
2019-02-25T20:10:45.231Z,5.40
2019-02-25T20:13:14.291Z,5.17
2019-02-25T20:15:44.399Z,6.33
2019-02-25T20:18:14.345Z,8.30
2019-02-25T20:20:44.684Z,4.83
2019-02-25T20:23:13.570Z,6.33
2019-02-25T20:25:44.802Z,4.53
2019-02-25T20:28:13.041Z,6.40
2019-02-25T20:30:43.009Z,5.60
2019-02-25T20:33:12.549Z,5.57
2019-02-25T20:35:44.993Z,5.53
2019-02-25T20:38:11.944Z,7.33
2019-02-25T20:40:40.831Z,4.57
2019-02-25T20:43:09.882Z,4.90
2019-02-25T20:45:38.997Z,5.17
2019-02-25T20:48:07.847Z,4.77
2019-02-25T20:50:36.718Z,5.57
2019-02-25T20:53:08.007Z,4.97
2019-02-25T20:55:36.426Z,4.27
2019-02-25T20:58:05.997Z,4.00
2019-02-25T21:00:39.019Z,8.30
2019-02-25T21:03:05.807Z,4.80
2019-02-25T21:05:35.335Z,6.07
2019-02-25T21:08:04.532Z,7.50
2019-02-25T21:10:35.546Z,5.70
2019-02-25T21:13:04.188Z,5.57
2019-02-25T21:15:35.444Z,5.13
2019-02-25T21:18:06.885Z,3.97
2019-02-25T21:20:34.322Z,5.40
2019-02-25T21:23:05.552Z,6.00
2019-02-25T21:25:34.291Z,5.97
2019-02-25T21:28:04.975Z,4.80
2019-02-25T21:30:37.101Z,7.20
2019-02-25T21:33:05.370Z,3.87
2019-02-25T21:35:37.220Z,4.50
2019-02-25T21:38:05.138Z,4.57
2019-02-25T21:40:34.016Z,5.07
2019-02-25T21:43:02.887Z,4.00
2019-02-25T21:45:32.382Z,6.60
2019-02-25T21:48:02.576Z,5.10
2019-02-25T21:50:34.029Z,4.80
2019-02-25T21:53:04.865Z,6.47
2019-02-25T21:55:34.781Z,5.00
2019-02-25T21:58:04.974Z,5.67
2019-02-25T22:00:35.866Z,5.00
2019-02-25T22:03:06.346Z,5.73
2019-02-25T22:05:35.082Z,6.07
2019-02-25T22:08:05.939Z,7.73
2019-02-25T22:10:36.818Z,4.07
2019-02-25T22:13:08.679Z,3.67
2019-02-25T22:15:36.203Z,6.50
2019-02-25T22:18:08.491Z,5.90
2019-02-25T22:20:39.656Z,4.10
2019-02-25T22:23:08.014Z,7.37
2019-02-25T22:25:37.123Z,6.33
2019-02-25T22:28:07.622Z,4.90
2019-02-25T22:30:36.446Z,5.60
2019-02-25T22:33:07.143Z,7.50
2019-02-25T22:35:37.580Z,5.43
2019-02-25T22:38:06.389Z,5.77
2019-02-25T22:40:36.690Z,4.30
2019-02-25T22:43:05.818Z,6.20
2019-02-25T22:45:35.962Z,7.00
2019-02-25T22:48:05.156Z,5.73
2019-02-25T22:50:36.051Z,6.80
2019-02-25T22:53:06.762Z,6.60
2019-02-25T22:55:39.326Z,5.27
2019-02-25T22:58:06.637Z,5.53
2019-02-25T23:00:43.377Z,7.00
2019-02-25T23:03:15.288Z,7.17
2019-02-25T23:05:43.704Z,6.50
2019-02-25T23:08:15.333Z,7.53
2019-02-25T23:10:44.956Z,5.30
2019-02-25T23:13:14.633Z,4.83
2019-02-25T23:15:44.723Z,5.20
2019-02-25T23:18:14.866Z,6.83
2019-02-25T23:20:44.746Z,4.43
2019-02-25T23:23:13.559Z,6.03
2019-02-25T23:25:42.497Z,5.20
2019-02-25T23:28:11.331Z,4.53
2019-02-25T23:30:40.197Z,4.87
2019-02-25T23:33:10.138Z,4.37
2019-02-25T23:35:42.699Z,4.77
2019-02-25T23:38:10.067Z,5.57
2019-02-25T23:40:40.209Z,4.17
2019-02-25T23:43:10.141Z,6.80
2019-02-25T23:45:41.720Z,6.67
2019-02-25T23:48:11.751Z,7.33
2019-02-25T23:50:40.797Z,5.50
2019-02-25T23:53:09.664Z,4.27
2019-02-25T23:55:38.540Z,5.07
2019-02-25T23:58:10.272Z,4.57
